Jfe Mercury — JD2719 — position and weather

sailwx.info

Track history (hours):
 
Tides and Currents Weather Stations Pressure Air Temp Water Temp Dewpoint Dewpoint Depression Visibility Wind Speed Wind Dir Waves Ship Positions

Jfe Mercury

Last reported at 2018-Jul-23 12:00 UTC. Time now 2018-Jul-23 15:10 UTC.
Position N 35°33' E 140°07'.

Length 152 m; draft 4.1 m.

Type: Cargo ship. MMSI: 431000822.

Date/timePositionNaut miles runAvg speedWind from/ knotsBaromVisibWave heightAir tempDewpointWater temp
2018-Jul-23 12:00N 35°33' E 140°07'4 7.7
2018-Jul-23 11:28N 35°33' E 140°02'0 0.3
2018-Jul-23 10:56N 35°34' E 140°02'0 0.0
2018-Jul-23 10:20N 35°34' E 140°02'0 0.0
2018-Jul-23 09:59N 35°34' E 140°02'0 0.0
2018-Jul-23 09:26N 35°34' E 140°02'0 0.0
2018-Jul-23 08:50N 35°34' E 140°02'0 0.1
2018-Jul-23 08:29N 35°34' E 140°02'0 0.1
2018-Jul-23 07:38N 35°34' E 140°02'0 0.0
2018-Jul-23 04:47N 35°34' E 140°02'0 0.1
2018-Jul-23 04:05N 35°33' E 140°02'0 0.0
2018-Jul-23 01:47N 35°33' E 140°02'0 0.1
2018-Jul-23 01:20N 35°33' E 140°02'0 0.1
2018-Jul-23 00:56N 35°33' E 140°02'0 0.0
2018-Jul-22 23:32N 35°33' E 140°02'0 0.0
2018-Jul-22 23:26N 35°33' E 140°02'0 0.0
2018-Jul-22 22:56N 35°33' E 140°02'0 0.0
2018-Jul-22 22:02N 35°33' E 140°02'0 0.0
2018-Jul-22 21:56N 35°33' E 140°02'0 0.1
2018-Jul-22 21:29N 35°33' E 140°02'0 0.7
2018-Jul-22 21:00N 35°34' E 140°02'4 7.8
2018-Jul-22 20:31N 35°33' E 140°07'0 0.0
2018-Jul-22 04:25N 35°33' E 140°07'3 7.9
2018-Jul-22 03:59N 35°34' E 140°03'511.1
2018-Jul-22 03:30N 35°31' E 139°57'611.1
2018-Jul-22 03:00N 35°28' E 139°51'511.0
2018-Jul-22 02:31N 35°27' E 139°45'2 4.2
2018-Jul-22 02:00N 35°28' E 139°43'0 0.0
2018-Jul-22 01:30N 35°28' E 139°43'0 0.0
2018-Jul-22 01:00N 35°28' E 139°43'0 0.0
2018-Jul-22 00:30N 35°28' E 139°43'0 0.0
2018-Jul-22 00:00N 35°28' E 139°43'0 0.2
2018-Jul-21 23:30N 35°28' E 139°43'4 7.1
2018-Jul-21 23:00N 35°25' E 139°44'2 3.0
2018-Jul-21 22:28N 35°23' E 139°44'0 0.0
2018-Jul-21 21:58N 35°23' E 139°44'0 0.0
2018-Jul-21 21:25N 35°23' E 139°44'0 0.0
2018-Jul-21 20:58N 35°23' E 139°44'0 0.0
2018-Jul-21 20:28N 35°23' E 139°44'0 0.0
2018-Jul-21 19:58N 35°23' E 139°44'0 0.0
2018-Jul-21 19:28N 35°23' E 139°44'2 3.7
2018-Jul-21 19:00N 35°21' E 139°44'5 9.8
2018-Jul-21 18:30N 35°17' E 139°46'510.2
2018-Jul-21 17:59N 35°12' E 139°47'510.9
2018-Jul-21 17:30N 35°07' E 139°45'611.0
2018-Jul-21 17:00N 35°02' E 139°41'611.4
2018-Jul-21 16:30N 34°59' E 139°35'233 5.4
2018-Jul-19 21:25N 33°44' E 135°08'610.5
2018-Jul-19 20:53N 33°49' E 135°04'410.9
2018-Jul-19 20:30N 33°52' E 135°01'611.3
2018-Jul-19 20:00N 33°56' E 134°57'611.0
2018-Jul-19 19:30N 33°60' E 134°52'611.5
2018-Jul-19 19:00N 34°05' E 134°48'911.5
2018-Jul-19 18:14N 34°12' E 134°42'210.8
2018-Jul-19 18:00N 34°13' E 134°40'610.9
2018-Jul-19 17:26N 34°17' E 134°34'410.4
2018-Jul-19 17:00N 34°19' E 134°29'510.1
2018-Jul-19 16:30N 34°21' E 134°23'510.1
2018-Jul-19 16:00N 34°23' E 134°17'5 9.4
2018-Jul-19 15:29N 34°24' E 134°12'1 0.0
2018-Jul-17 15:03N 34°25' E 134°11'112.9
2018-Jul-17 14:57N 34°25' E 134°13'611.8
2018-Jul-17 14:27N 34°25' E 134°20'511.1
2018-Jul-17 14:00N 34°27' E 134°25'510.6
2018-Jul-17 13:30N 34°29' E 134°31'510.7
2018-Jul-17 13:00N 34°30' E 134°37'611.1
2018-Jul-17 12:30N 34°33' E 134°44'611.5
2018-Jul-17 12:00N 34°35' E 134°50'612.1
2018-Jul-17 11:30N 34°37' E 134°57'5 9.7
2018-Jul-17 11:00N 34°36' E 135°03'4 8.2
2018-Jul-17 10:30N 34°36' E 135°08'510.0
2018-Jul-17 10:00N 34°36' E 135°14'510.3
2018-Jul-17 09:30N 34°37' E 135°20'5 9.2
2018-Jul-17 09:00N 34°35' E 135°25'0 0.3
2018-Jul-17 08:24N 34°35' E 135°26'0 0.0
2018-Jul-17 07:51N 34°35' E 135°26'0 0.0
2018-Jul-17 07:30N 34°35' E 135°26'2 3.9
2018-Jul-17 07:00N 34°36' E 135°24'4 8.8
2018-Jul-17 06:30N 34°35' E 135°18'0 0.3
2018-Jul-17 06:00N 34°35' E 135°19'0 0.0
2018-Jul-17 05:30N 34°35' E 135°19'0 0.0
2018-Jul-17 05:00N 34°35' E 135°19'1 1.4
2018-Jul-17 04:30N 34°35' E 135°18'510.7
2018-Jul-17 04:00N 34°31' E 135°14'510.5
2018-Jul-17 03:30N 34°27' E 135°09'510.7
2018-Jul-17 03:00N 34°23' E 135°05'510.9
2018-Jul-17 02:30N 34°19' E 135°01'510.9
2018-Jul-17 02:00N 34°13' E 134°60'611.6
2018-Jul-17 01:30N 34°08' E 135°00'611.3
2018-Jul-17 01:00N 34°02' E 135°01'510.5
2018-Jul-17 00:30N 33°57' E 135°02'1210.8
2018-Jul-16 23:25N 33°46' E 135°08'208 5.9
2018-Jul-15 12:00N 34°48' E 139°09'15 8.8
2018-Jul-15 10:19N 34°58' E 139°23'2 7.4
2018-Jul-15 10:00N 34°59' E 139°25'4 7.9
2018-Jul-15 09:30N 35°01' E 139°29'5 9.6
2018-Jul-15 09:00N 35°03' E 139°34'510.5
2018-Jul-15 08:30N 35°06' E 139°40'510.0
2018-Jul-15 08:00N 35°10' E 139°44'5 9.5
2018-Jul-15 07:30N 35°14' E 139°46'4 8.7
2018-Jul-15 07:00N 35°18' E 139°44'5 9.4
2018-Jul-15 06:30N 35°23' E 139°42'5 9.3
2018-Jul-15 06:00N 35°27' E 139°43'1 1.4
2018-Jul-15 05:30N 35°28' E 139°43'0 0.0
2018-Jul-15 05:00N 35°28' E 139°43'0 0.0
2018-Jul-15 04:30N 35°28' E 139°43'0 0.0
2018-Jul-15 04:00N 35°28' E 139°43'0 0.0
2018-Jul-15 03:30N 35°28' E 139°43'0 0.0
2018-Jul-15 03:00N 35°28' E 139°43'0 0.0
2018-Jul-15 02:30N 35°28' E 139°43'0 0.0
2018-Jul-15 02:00N 35°28' E 139°43'0 0.0
2018-Jul-15 01:30N 35°28' E 139°43'0 0.0
2018-Jul-15 01:00N 35°28' E 139°43'0 0.0
2018-Jul-15 00:30N 35°28' E 139°43'0 0.0
2018-Jul-15 00:00N 35°28' E 139°43'0 0.0
2018-Jul-14 23:30N 35°28' E 139°43'2 4.1
2018-Jul-14 23:00N 35°27' E 139°45'611.2
2018-Jul-14 22:30N 35°30' E 139°51'9 6.7
2018-Jul-14 21:06N 35°34' E 140°02'1 9.3
2018-Jul-14 20:57N 35°34' E 140°03'3 0.3
2018-Jul-14 10:19N 35°33' E 140°07'4 7.6
2018-Jul-14 09:47N 35°34' E 140°02'0 0.0
2018-Jul-14 04:41N 35°34' E 140°02'0 0.3
2018-Jul-14 04:29N 35°34' E 140°02'0 0.1
2018-Jul-14 03:55N 35°34' E 140°02'0 0.0
2018-Jul-14 03:20N 35°34' E 140°02'0 0.1
2018-Jul-14 02:55N 35°34' E 140°02'0 0.0
2018-Jul-14 02:30N 35°34' E 140°02'0 0.1
2018-Jul-14 02:00N 35°34' E 140°02'0 0.1
2018-Jul-14 01:30N 35°34' E 140°02'0 0.0
2018-Jul-14 01:00N 35°34' E 140°02'0 0.0
2018-Jul-14 00:30N 35°34' E 140°02'0 0.0
2018-Jul-13 23:59N 35°34' E 140°02'0 0.0
2018-Jul-13 23:25N 35°34' E 140°02'0 0.0
2018-Jul-13 23:00N 35°34' E 140°02'0 0.0
2018-Jul-13 22:30N 35°34' E 140°02'0 0.1
2018-Jul-13 22:00N 35°34' E 140°02'0 0.0
2018-Jul-13 21:30N 35°34' E 140°02'0 0.1
2018-Jul-13 21:00N 35°34' E 140°02'4 7.6
2018-Jul-13 20:30N 35°32' E 139°57'510.7
2018-Jul-13 20:00N 35°29' E 139°52'510.6
2018-Jul-13 19:30N 35°27' E 139°46'3 5.7
2018-Jul-13 19:00N 35°28' E 139°43'0 0.0
2018-Jul-13 18:30N 35°28' E 139°43'0 0.0
2018-Jul-13 18:00N 35°28' E 139°43'0 0.0
2018-Jul-13 17:30N 35°28' E 139°43'0 0.0
2018-Jul-13 17:00N 35°28' E 139°43'0 0.0
2018-Jul-13 16:30N 35°28' E 139°43'0 0.0
2018-Jul-13 16:00N 35°28' E 139°43'0 0.1
2018-Jul-13 15:30N 35°28' E 139°43'3 6.3
2018-Jul-13 15:00N 35°25' E 139°45'2 2.3
2018-Jul-13 14:00N 35°23' E 139°45'0 0.1
2018-Jul-13 13:30N 35°23' E 139°45'0 0.1
2018-Jul-13 13:00N 35°23' E 139°45'0 0.0
2018-Jul-13 12:30N 35°23' E 139°45'  
Track history (hours):
 
Tides and Currents Weather Stations Pressure Air Temp Water Temp Dewpoint Dewpoint Depression Visibility Wind Speed Wind Dir Waves Ship Positions

Jfe Mercury

Last reported at 2018-Jul-23 12:00 UTC. Time now 2018-Jul-23 15:10 UTC.
Position N 35°33' E 140°07'.

Length 152 m; draft 4.1 m.

Type: Cargo ship. MMSI: 431000822.

Date/timePositionNaut miles runAvg speedWind from/ knotsBaromVisibWave heightAir tempDewpointWater temp
2018-Jul-23 12:00N 35°33' E 140°07'4 7.7
2018-Jul-23 11:28N 35°33' E 140°02'0 0.3
2018-Jul-23 10:56N 35°34' E 140°02'0 0.0
2018-Jul-23 10:20N 35°34' E 140°02'0 0.0
2018-Jul-23 09:59N 35°34' E 140°02'0 0.0
2018-Jul-23 09:26N 35°34' E 140°02'0 0.0
2018-Jul-23 08:50N 35°34' E 140°02'0 0.1
2018-Jul-23 08:29N 35°34' E 140°02'0 0.1
2018-Jul-23 07:38N 35°34' E 140°02'0 0.0
2018-Jul-23 04:47N 35°34' E 140°02'0 0.1
2018-Jul-23 04:05N 35°33' E 140°02'0 0.0
2018-Jul-23 01:47N 35°33' E 140°02'0 0.1
2018-Jul-23 01:20N 35°33' E 140°02'0 0.1
2018-Jul-23 00:56N 35°33' E 140°02'0 0.0
2018-Jul-22 23:32N 35°33' E 140°02'0 0.0
2018-Jul-22 23:26N 35°33' E 140°02'0 0.0
2018-Jul-22 22:56N 35°33' E 140°02'0 0.0
2018-Jul-22 22:02N 35°33' E 140°02'0 0.0
2018-Jul-22 21:56N 35°33' E 140°02'0 0.1
2018-Jul-22 21:29N 35°33' E 140°02'0 0.7
2018-Jul-22 21:00N 35°34' E 140°02'4 7.8
2018-Jul-22 20:31N 35°33' E 140°07'0 0.0
2018-Jul-22 04:25N 35°33' E 140°07'3 7.9
2018-Jul-22 03:59N 35°34' E 140°03'511.1
2018-Jul-22 03:30N 35°31' E 139°57'611.1
2018-Jul-22 03:00N 35°28' E 139°51'511.0
2018-Jul-22 02:31N 35°27' E 139°45'2 4.2
2018-Jul-22 02:00N 35°28' E 139°43'0 0.0
2018-Jul-22 01:30N 35°28' E 139°43'0 0.0
2018-Jul-22 01:00N 35°28' E 139°43'0 0.0
2018-Jul-22 00:30N 35°28' E 139°43'0 0.0
2018-Jul-22 00:00N 35°28' E 139°43'0 0.2
2018-Jul-21 23:30N 35°28' E 139°43'4 7.1
2018-Jul-21 23:00N 35°25' E 139°44'2 3.0
2018-Jul-21 22:28N 35°23' E 139°44'0 0.0
2018-Jul-21 21:58N 35°23' E 139°44'0 0.0
2018-Jul-21 21:25N 35°23' E 139°44'0 0.0
2018-Jul-21 20:58N 35°23' E 139°44'0 0.0
2018-Jul-21 20:28N 35°23' E 139°44'0 0.0
2018-Jul-21 19:58N 35°23' E 139°44'0 0.0
2018-Jul-21 19:28N 35°23' E 139°44'2 3.7
2018-Jul-21 19:00N 35°21' E 139°44'5 9.8
2018-Jul-21 18:30N 35°17' E 139°46'510.2
2018-Jul-21 17:59N 35°12' E 139°47'510.9
2018-Jul-21 17:30N 35°07' E 139°45'611.0
2018-Jul-21 17:00N 35°02' E 139°41'611.4
2018-Jul-21 16:30N 34°59' E 139°35'233 5.4
2018-Jul-19 21:25N 33°44' E 135°08'610.5
2018-Jul-19 20:53N 33°49' E 135°04'410.9
2018-Jul-19 20:30N 33°52' E 135°01'611.3
2018-Jul-19 20:00N 33°56' E 134°57'611.0
2018-Jul-19 19:30N 33°60' E 134°52'611.5
2018-Jul-19 19:00N 34°05' E 134°48'911.5
2018-Jul-19 18:14N 34°12' E 134°42'210.8
2018-Jul-19 18:00N 34°13' E 134°40'610.9
2018-Jul-19 17:26N 34°17' E 134°34'410.4
2018-Jul-19 17:00N 34°19' E 134°29'510.1
2018-Jul-19 16:30N 34°21' E 134°23'510.1
2018-Jul-19 16:00N 34°23' E 134°17'5 9.4
2018-Jul-19 15:29N 34°24' E 134°12'1 0.0
2018-Jul-17 15:03N 34°25' E 134°11'112.9
2018-Jul-17 14:57N 34°25' E 134°13'611.8
2018-Jul-17 14:27N 34°25' E 134°20'511.1
2018-Jul-17 14:00N 34°27' E 134°25'510.6
2018-Jul-17 13:30N 34°29' E 134°31'510.7
2018-Jul-17 13:00N 34°30' E 134°37'611.1
2018-Jul-17 12:30N 34°33' E 134°44'611.5
2018-Jul-17 12:00N 34°35' E 134°50'612.1
2018-Jul-17 11:30N 34°37' E 134°57'5 9.7
2018-Jul-17 11:00N 34°36' E 135°03'4 8.2
2018-Jul-17 10:30N 34°36' E 135°08'510.0
2018-Jul-17 10:00N 34°36' E 135°14'510.3
2018-Jul-17 09:30N 34°37' E 135°20'5 9.2
2018-Jul-17 09:00N 34°35' E 135°25'0 0.3
2018-Jul-17 08:24N 34°35' E 135°26'0 0.0
2018-Jul-17 07:51N 34°35' E 135°26'0 0.0
2018-Jul-17 07:30N 34°35' E 135°26'2 3.9
2018-Jul-17 07:00N 34°36' E 135°24'4 8.8
2018-Jul-17 06:30N 34°35' E 135°18'0 0.3
2018-Jul-17 06:00N 34°35' E 135°19'0 0.0
2018-Jul-17 05:30N 34°35' E 135°19'0 0.0
2018-Jul-17 05:00N 34°35' E 135°19'1 1.4
2018-Jul-17 04:30N 34°35' E 135°18'510.7
2018-Jul-17 04:00N 34°31' E 135°14'510.5
2018-Jul-17 03:30N 34°27' E 135°09'510.7
2018-Jul-17 03:00N 34°23' E 135°05'510.9
2018-Jul-17 02:30N 34°19' E 135°01'510.9
2018-Jul-17 02:00N 34°13' E 134°60'611.6
2018-Jul-17 01:30N 34°08' E 135°00'611.3
2018-Jul-17 01:00N 34°02' E 135°01'510.5
2018-Jul-17 00:30N 33°57' E 135°02'1210.8
2018-Jul-16 23:25N 33°46' E 135°08'208 5.9
2018-Jul-15 12:00N 34°48' E 139°09'15 8.8
2018-Jul-15 10:19N 34°58' E 139°23'2 7.4
2018-Jul-15 10:00N 34°59' E 139°25'4 7.9
2018-Jul-15 09:30N 35°01' E 139°29'5 9.6
2018-Jul-15 09:00N 35°03' E 139°34'510.5
2018-Jul-15 08:30N 35°06' E 139°40'510.0
2018-Jul-15 08:00N 35°10' E 139°44'5 9.5
2018-Jul-15 07:30N 35°14' E 139°46'4 8.7
2018-Jul-15 07:00N 35°18' E 139°44'5 9.4
2018-Jul-15 06:30N 35°23' E 139°42'5 9.3
2018-Jul-15 06:00N 35°27' E 139°43'1 1.4
2018-Jul-15 05:30N 35°28' E 139°43'0 0.0
2018-Jul-15 05:00N 35°28' E 139°43'0 0.0
2018-Jul-15 04:30N 35°28' E 139°43'0 0.0
2018-Jul-15 04:00N 35°28' E 139°43'0 0.0
2018-Jul-15 03:30N 35°28' E 139°43'0 0.0
2018-Jul-15 03:00N 35°28' E 139°43'0 0.0
2018-Jul-15 02:30N 35°28' E 139°43'0 0.0
2018-Jul-15 02:00N 35°28' E 139°43'0 0.0
2018-Jul-15 01:30N 35°28' E 139°43'0 0.0
2018-Jul-15 01:00N 35°28' E 139°43'0 0.0
2018-Jul-15 00:30N 35°28' E 139°43'0 0.0
2018-Jul-15 00:00N 35°28' E 139°43'0 0.0
2018-Jul-14 23:30N 35°28' E 139°43'2 4.1
2018-Jul-14 23:00N 35°27' E 139°45'611.2
2018-Jul-14 22:30N 35°30' E 139°51'9 6.7
2018-Jul-14 21:06N 35°34' E 140°02'1 9.3
2018-Jul-14 20:57N 35°34' E 140°03'3 0.3
2018-Jul-14 10:19N 35°33' E 140°07'4 7.6
2018-Jul-14 09:47N 35°34' E 140°02'0 0.0
2018-Jul-14 04:41N 35°34' E 140°02'0 0.3
2018-Jul-14 04:29N 35°34' E 140°02'0 0.1
2018-Jul-14 03:55N 35°34' E 140°02'0 0.0
2018-Jul-14 03:20N 35°34' E 140°02'0 0.1
2018-Jul-14 02:55N 35°34' E 140°02'0 0.0
2018-Jul-14 02:30N 35°34' E 140°02'0 0.1
2018-Jul-14 02:00N 35°34' E 140°02'0 0.1
2018-Jul-14 01:30N 35°34' E 140°02'0 0.0
2018-Jul-14 01:00N 35°34' E 140°02'0 0.0
2018-Jul-14 00:30N 35°34' E 140°02'0 0.0
2018-Jul-13 23:59N 35°34' E 140°02'0 0.0
2018-Jul-13 23:25N 35°34' E 140°02'0 0.0
2018-Jul-13 23:00N 35°34' E 140°02'0 0.0
2018-Jul-13 22:30N 35°34' E 140°02'0 0.1
2018-Jul-13 22:00N 35°34' E 140°02'0 0.0
2018-Jul-13 21:30N 35°34' E 140°02'0 0.1
2018-Jul-13 21:00N 35°34' E 140°02'4 7.6
2018-Jul-13 20:30N 35°32' E 139°57'510.7
2018-Jul-13 20:00N 35°29' E 139°52'510.6
2018-Jul-13 19:30N 35°27' E 139°46'3 5.7
2018-Jul-13 19:00N 35°28' E 139°43'0 0.0
2018-Jul-13 18:30N 35°28' E 139°43'0 0.0
2018-Jul-13 18:00N 35°28' E 139°43'0 0.0
2018-Jul-13 17:30N 35°28' E 139°43'0 0.0
2018-Jul-13 17:00N 35°28' E 139°43'0 0.0
2018-Jul-13 16:30N 35°28' E 139°43'0 0.0
2018-Jul-13 16:00N 35°28' E 139°43'0 0.1
2018-Jul-13 15:30N 35°28' E 139°43'3 6.3
2018-Jul-13 15:00N 35°25' E 139°45'2 2.3
2018-Jul-13 14:00N 35°23' E 139°45'0 0.1
2018-Jul-13 13:30N 35°23' E 139°45'0 0.1
2018-Jul-13 13:00N 35°23' E 139°45'0 0.0
2018-Jul-13 12:30N 35°23' E 139°45'  

Dump ship's entire track history